GMFO/OUD METAR and TAF weather

Enter ICAO airport designator
Station Type Date Time Source
GMFO METAR 2019/10/21 22:00 UTC NOAA

GMFO 212200Z 36010KT 9999 -RA SCT006 BKN030 FEW040CB 13/12 Q1014 TEMPO TS


Station Type Date Time Source
GMFO Decoded METAR 2019/10/21 22:00 UTC NOAA

Oujda, Morocco (GMFO) 34-47N 001-56W 470M
Oct 21, 2019 - 06:00 PM EDT / 2019.10.21 2200 UTC
Wind: from the N (360 degrees) at 12 MPH (10 KT):0
Visibility: greater than 7 mile(s):0
Sky conditions: mostly cloudy
Weather: light rain; Cumulonimbus clouds observed
Temperature: 55 F (13 C)
Dew Point: 53 F (12 C)
Relative Humidity: 93%
Pressure (altimeter): 29.94 in. Hg (1014 hPa)
ob: GMFO 212200Z 36010KT 9999 -RA SCT006 BKN030 FEW040CB 13/12 Q1014 TEMPO TS
cycle: 22

Station Type Date Time Source
GMFO TAF 2019/10/21 18:18 UTC NOAA

TAF GMFO 211700Z 2118/2224 36012KT 9999 -RA SCT026 BKN090 BKN200 PROB30
TEMPO 2121/2202 TSRA FEW040CB

Example: see airport list